< < Back
Terminal Aerodrome Forecast


Current Version              Previous Versions:   1  2  3  4  5  6  7  8  9  

Terminal Aerodrome Forecast

485
FTUS42 KGSP 282320
TAFAND
TAF
KAND 282320Z 2900/2924 VRB03KT P6SM SCT060 BKN110
      TEMPO 2900/2904 BKN060
     FM290900 VRB03KT 3SM BR FEW030 SCT060
     FM291300 15003KT P6SM SCT060
     FM291800 16003KT P6SM BKN060 PROB30 2920/2924 4SM TSRA
      BKN040CB=



Latest METAR

712
SAUS70 KWBC 291300 RRA
MTRAND
METAR KAND 291256Z AUTO 11006KT 10SM CLR 26/23 A3003 RMK AO2 SLP157
T02610228


USA.gov is the U.S. government's official web portal to all federal, state and local government web resources and services.